Portada
METAR-TAF:

METAR-TAF

Aeropuertos :

Aeropuerto Internacional de Yap

Yap, Micronesia

latitud: 09-29N, longitud: 138-05E, altitud: 28 m

Observación

El informe se hizo hace 2 horas y 9 minutos, a las 09:50 UTC
Viento 5 kt con dirección variable
Temperatura 28°C
Humedad 79%
Presión 1011 hPa
Visibilidad: 19.3 km
Nubes dispersas a una altura de 1600 ft
Cielo cubierto a una altura de 30000 ft

METAR: PTYA 210950Z VRB05KT 12SM SCT016 OVC300 28/24 A2984 RMK SLP105 T02790235

Hora: 21:59 (11:59 UTC)

Pronóstico

El informe se hizo hace 38 minutos, a las 11:21 UTC
Pronóstico válido del 21 a las 12 UTC al 22 a las 12 UTC
Viento 11 kt del noreste
Visibilidad: 10 km
Escasas nubes a una altura de 1600 ft
Nubes dispersas a una altura de 14000 ft
chaparrones en las proximidades

TAF: PTYA 211121Z 2112/2212 05011KT P6SM VCSH FEW016 SCT140

Observaciones y pronósticos meteorológicos de más de 4000 aeropuertos (mensajes METAR y TAF).

Los puntos amarillos y rojos representan las estaciones disponibles.

Ponga el ratón en el punto deseado para ver el nombre de la estación.

Haga clic para ver las observaciones y los pronósticos meteorológicos.

Para cambiar el mapa : haga clic en los botones verdes con una cruz de color negro para hacer un zoom, en el botón verde con un guión para alejar o en las flechas verdes para mapas adyacentes.


METAR-TAF: